sensor_id;sensor_type;location;lat;lon;timestamp;temperature;humidity
25300;DHT22;13241;51.208;4.432;2023-02-11T00:01:50;6.90;99.90
25300;DHT22;13241;51.208;4.432;2023-02-11T00:04:16;6.90;99.90
25300;DHT22;13241;51.208;4.432;2023-02-11T00:06:43;6.80;99.90
25300;DHT22;13241;51.208;4.432;2023-02-11T00:09:10;6.80;99.90
25300;DHT22;13241;51.208;4.432;2023-02-11T00:11:38;6.80;99.90
25300;DHT22;13241;51.208;4.432;2023-02-11T00:14:06;6.80;99.90
25300;DHT22;13241;51.208;4.432;2023-02-11T00:16:35;6.80;99.90
25300;DHT22;13241;51.208;4.432;2023-02-11T00:19:03;6.80;99.90
25300;DHT22;13241;51.208;4.432;2023-02-11T00:21:32;6.80;99.90
25300;DHT22;13241;51.208;4.432;2023-02-11T00:23:59;6.80;99.90
25300;DHT22;13241;51.208;4.432;2023-02-11T00:26:33;6.80;99.90
25300;DHT22;13241;51.208;4.432;2023-02-11T00:29:08;6.80;99.90
25300;DHT22;13241;51.208;4.432;2023-02-11T00:31:35;6.80;99.90
25300;DHT22;13241;51.208;4.432;2023-02-11T00:34:04;6.80;99.90
25300;DHT22;13241;51.208;4.432;2023-02-11T00:36:31;6.80;99.90
25300;DHT22;13241;51.208;4.432;2023-02-11T00:38:58;6.80;99.90
25300;DHT22;13241;51.208;4.432;2023-02-11T00:41:26;6.80;99.90
25300;DHT22;13241;51.208;4.432;2023-02-11T00:43:53;6.80;99.90
25300;DHT22;13241;51.208;4.432;2023-02-11T00:46:21;6.80;99.90
25300;DHT22;13241;51.208;4.432;2023-02-11T00:48:48;6.80;99.90
25300;DHT22;13241;51.208;4.432;2023-02-11T00:51:20;6.70;99.90
25300;DHT22;13241;51.208;4.432;2023-02-11T00:53:48;6.70;99.90
25300;DHT22;13241;51.208;4.432;2023-02-11T00:56:16;6.60;99.90
25300;DHT22;13241;51.208;4.432;2023-02-11T00:58:43;6.60;99.90
25300;DHT22;13241;51.208;4.432;2023-02-11T01:01:10;6.60;99.90
25300;DHT22;13241;51.208;4.432;2023-02-11T01:03:38;6.60;99.90
25300;DHT22;13241;51.208;4.432;2023-02-11T01:06:07;6.60;99.90
25300;DHT22;13241;51.208;4.432;2023-02-11T01:08:37;6.70;99.90
25300;DHT22;13241;51.208;4.432;2023-02-11T01:11:06;6.70;99.90
25300;DHT22;13241;51.208;4.432;2023-02-11T01:13:35;6.80;99.90
25300;DHT22;13241;51.208;4.432;2023-02-11T01:16:05;6.80;99.90
25300;DHT22;13241;51.208;4.432;2023-02-11T01:18:34;6.80;99.90
25300;DHT22;13241;51.208;4.432;2023-02-11T01:21:01;6.80;99.90
25300;DHT22;13241;51.208;4.432;2023-02-11T01:23:29;6.80;99.90
25300;DHT22;13241;51.208;4.432;2023-02-11T01:26:00;6.90;99.90
25300;DHT22;13241;51.208;4.432;2023-02-11T01:28:28;6.90;99.90
25300;DHT22;13241;51.208;4.432;2023-02-11T01:31:00;6.90;99.90
25300;DHT22;13241;51.208;4.432;2023-02-11T01:33:27;6.90;99.90
25300;DHT22;13241;51.208;4.432;2023-02-11T01:35:54;6.90;99.90
25300;DHT22;13241;51.208;4.432;2023-02-11T01:38:24;7.00;99.90
25300;DHT22;13241;51.208;4.432;2023-02-11T01:40:56;7.00;99.90
25300;DHT22;13241;51.208;4.432;2023-02-11T01:43:25;7.30;99.90
25300;DHT22;13241;51.208;4.432;2023-02-11T01:48:39;7.00;99.90
25300;DHT22;13241;51.208;4.432;2023-02-11T01:51:14;7.00;99.90
25300;DHT22;13241;51.208;4.432;2023-02-11T01:53:43;7.00;99.90
25300;DHT22;13241;51.208;4.432;2023-02-11T01:56:30;7.00;99.90
25300;DHT22;13241;51.208;4.432;2023-02-11T01:59:23;7.00;99.90
25300;DHT22;13241;51.208;4.432;2023-02-11T02:01:56;7.00;99.90
25300;DHT22;13241;51.208;4.432;2023-02-11T02:04:26;7.00;99.90
25300;DHT22;13241;51.208;4.432;2023-02-11T02:07:02;7.10;99.90
25300;DHT22;13241;51.208;4.432;2023-02-11T02:09:39;7.10;99.90
25300;DHT22;13241;51.208;4.432;2023-02-11T02:12:07;7.10;99.90
25300;DHT22;13241;51.208;4.432;2023-02-11T02:14:38;7.10;99.90
25300;DHT22;13241;51.208;4.432;2023-02-11T02:17:09;7.10;99.90
25300;DHT22;13241;51.208;4.432;2023-02-11T02:25:13;7.10;99.90
25300;DHT22;13241;51.208;4.432;2023-02-11T02:30:53;7.10;99.90
25300;DHT22;13241;51.208;4.432;2023-02-11T02:33:37;7.10;99.90
25300;DHT22;13241;51.208;4.432;2023-02-11T02:39:02;7.10;99.90
25300;DHT22;13241;51.208;4.432;2023-02-11T02:41:32;7.20;99.90
25300;DHT22;13241;51.208;4.432;2023-02-11T02:44:00;7.10;99.90
25300;DHT22;13241;51.208;4.432;2023-02-11T02:46:29;7.10;99.90
25300;DHT22;13241;51.208;4.432;2023-02-11T02:48:57;7.10;99.90
25300;DHT22;13241;51.208;4.432;2023-02-11T02:54:38;7.10;99.90
25300;DHT22;13241;51.208;4.432;2023-02-11T02:57:31;7.10;99.90
25300;DHT22;13241;51.208;4.432;2023-02-11T03:00:29;7.20;99.90
25300;DHT22;13241;51.208;4.432;2023-02-11T03:06:00;7.10;99.90
25300;DHT22;13241;51.208;4.432;2023-02-11T03:08:49;7.10;99.90
25300;DHT22;13241;51.208;4.432;2023-02-11T03:11:19;7.10;99.90
25300;DHT22;13241;51.208;4.432;2023-02-11T03:13:48;7.10;99.90
25300;DHT22;13241;51.208;4.432;2023-02-11T03:16:22;7.20;99.90
25300;DHT22;13241;51.208;4.432;2023-02-11T03:19:00;7.20;99.90
25300;DHT22;13241;51.208;4.432;2023-02-11T03:21:29;7.20;99.90
25300;DHT22;13241;51.208;4.432;2023-02-11T03:24:00;7.20;99.90
25300;DHT22;13241;51.208;4.432;2023-02-11T03:26:33;7.20;99.90
25300;DHT22;13241;51.208;4.432;2023-02-11T03:29:19;7.20;99.90
25300;DHT22;13241;51.208;4.432;2023-02-11T03:34:39;7.20;99.90
25300;DHT22;13241;51.208;4.432;2023-02-11T03:37:09;7.20;99.90
25300;DHT22;13241;51.208;4.432;2023-02-11T03:39:49;7.20;99.90
25300;DHT22;13241;51.208;4.432;2023-02-11T03:42:18;7.20;99.90
25300;DHT22;13241;51.208;4.432;2023-02-11T03:44:50;7.20;99.90
25300;DHT22;13241;51.208;4.432;2023-02-11T03:47:21;7.20;99.90
25300;DHT22;13241;51.208;4.432;2023-02-11T03:49:52;7.30;99.90
25300;DHT22;13241;51.208;4.432;2023-02-11T03:52:21;7.30;99.90
25300;DHT22;13241;51.208;4.432;2023-02-11T03:54:54;7.30;99.90
25300;DHT22;13241;51.208;4.432;2023-02-11T03:57:22;7.30;99.90
25300;DHT22;13241;51.208;4.432;2023-02-11T03:59:58;7.30;99.90
25300;DHT22;13241;51.208;4.432;2023-02-11T04:02:33;7.30;99.90
25300;DHT22;13241;51.208;4.432;2023-02-11T04:05:02;7.40;99.90
25300;DHT22;13241;51.208;4.432;2023-02-11T04:07:29;7.30;99.90
25300;DHT22;13241;51.208;4.432;2023-02-11T04:09:56;7.30;99.90
25300;DHT22;13241;51.208;4.432;2023-02-11T04:12:22;7.30;99.90
25300;DHT22;13241;51.208;4.432;2023-02-11T04:14:49;7.40;99.90
25300;DHT22;13241;51.208;4.432;2023-02-11T04:17:16;7.40;99.90
25300;DHT22;13241;51.208;4.432;2023-02-11T04:19:44;7.40;99.90
25300;DHT22;13241;51.208;4.432;2023-02-11T04:22:11;7.40;99.90
25300;DHT22;13241;51.208;4.432;2023-02-11T04:24:38;7.40;99.90
25300;DHT22;13241;51.208;4.432;2023-02-11T04:27:05;7.30;99.90
25300;DHT22;13241;51.208;4.432;2023-02-11T04:29:31;7.30;99.90
25300;DHT22;13241;51.208;4.432;2023-02-11T04:31:58;7.30;99.90
25300;DHT22;13241;51.208;4.432;2023-02-11T04:34:25;7.40;99.90
25300;DHT22;13241;51.208;4.432;2023-02-11T04:36:53;7.40;99.90
25300;DHT22;13241;51.208;4.432;2023-02-11T04:39:20;7.40;99.90
25300;DHT22;13241;51.208;4.432;2023-02-11T04:41:47;7.30;99.90
25300;DHT22;13241;51.208;4.432;2023-02-11T04:44:14;7.20;99.90
25300;DHT22;13241;51.208;4.432;2023-02-11T04:46:41;7.10;99.90
25300;DHT22;13241;51.208;4.432;2023-02-11T04:49:12;7.10;99.90
25300;DHT22;13241;51.208;4.432;2023-02-11T04:51:40;7.10;99.90
25300;DHT22;13241;51.208;4.432;2023-02-11T04:54:07;7.00;99.90
25300;DHT22;13241;51.208;4.432;2023-02-11T04:56:34;7.00;99.90
25300;DHT22;13241;51.208;4.432;2023-02-11T04:59:02;7.00;99.90
25300;DHT22;13241;51.208;4.432;2023-02-11T05:01:29;7.00;99.90
25300;DHT22;13241;51.208;4.432;2023-02-11T05:03:56;7.10;99.90
25300;DHT22;13241;51.208;4.432;2023-02-11T05:06:23;7.10;99.90
25300;DHT22;13241;51.208;4.432;2023-02-11T05:08:50;7.10;99.90
25300;DHT22;13241;51.208;4.432;2023-02-11T05:11:22;7.10;99.90
25300;DHT22;13241;51.208;4.432;2023-02-11T05:13:49;7.10;99.90
25300;DHT22;13241;51.208;4.432;2023-02-11T05:16:16;7.10;99.90
25300;DHT22;13241;51.208;4.432;2023-02-11T05:18:44;7.10;99.90
25300;DHT22;13241;51.208;4.432;2023-02-11T05:21:16;7.20;99.90
25300;DHT22;13241;51.208;4.432;2023-02-11T05:23:43;7.20;99.90
25300;DHT22;13241;51.208;4.432;2023-02-11T05:26:12;7.10;99.90
25300;DHT22;13241;51.208;4.432;2023-02-11T05:28:41;7.10;99.90
25300;DHT22;13241;51.208;4.432;2023-02-11T05:31:09;7.20;99.90
25300;DHT22;13241;51.208;4.432;2023-02-11T05:33:37;7.10;99.90
25300;DHT22;13241;51.208;4.432;2023-02-11T05:36:07;7.20;99.90
25300;DHT22;13241;51.208;4.432;2023-02-11T05:38:37;7.10;99.90
25300;DHT22;13241;51.208;4.432;2023-02-11T05:41:05;7.20;99.90
25300;DHT22;13241;51.208;4.432;2023-02-11T05:43:32;7.20;99.90
25300;DHT22;13241;51.208;4.432;2023-02-11T05:46:02;7.30;99.90
25300;DHT22;13241;51.208;4.432;2023-02-11T05:48:29;7.20;99.90
25300;DHT22;13241;51.208;4.432;2023-02-11T05:50:56;7.20;99.90
25300;DHT22;13241;51.208;4.432;2023-02-11T05:53:22;7.20;99.90
25300;DHT22;13241;51.208;4.432;2023-02-11T05:55:51;7.30;99.90
25300;DHT22;13241;51.208;4.432;2023-02-11T05:58:18;7.20;99.90
25300;DHT22;13241;51.208;4.432;2023-02-11T06:00:45;7.30;99.90
25300;DHT22;13241;51.208;4.432;2023-02-11T06:03:11;7.30;99.90
25300;DHT22;13241;51.208;4.432;2023-02-11T06:05:38;7.30;99.90
25300;DHT22;13241;51.208;4.432;2023-02-11T06:08:05;7.30;99.90
25300;DHT22;13241;51.208;4.432;2023-02-11T06:10:32;7.30;99.90
25300;DHT22;13241;51.208;4.432;2023-02-11T06:13:00;7.30;99.90
25300;DHT22;13241;51.208;4.432;2023-02-11T06:15:29;7.30;99.90
25300;DHT22;13241;51.208;4.432;2023-02-11T06:17:56;7.30;99.90
25300;DHT22;13241;51.208;4.432;2023-02-11T06:20:22;7.40;99.90
25300;DHT22;13241;51.208;4.432;2023-02-11T06:22:49;7.40;99.90
25300;DHT22;13241;51.208;4.432;2023-02-11T06:25:16;7.30;99.90
25300;DHT22;13241;51.208;4.432;2023-02-11T06:27:43;7.30;99.90
25300;DHT22;13241;51.208;4.432;2023-02-11T06:30:10;7.40;99.90
25300;DHT22;13241;51.208;4.432;2023-02-11T06:32:37;7.40;99.90
25300;DHT22;13241;51.208;4.432;2023-02-11T06:35:11;7.40;99.90
25300;DHT22;13241;51.208;4.432;2023-02-11T06:37:39;7.40;99.90
25300;DHT22;13241;51.208;4.432;2023-02-11T06:40:06;7.40;99.90
25300;DHT22;13241;51.208;4.432;2023-02-11T06:42:33;7.40;99.90
25300;DHT22;13241;51.208;4.432;2023-02-11T06:45:02;7.40;99.90
25300;DHT22;13241;51.208;4.432;2023-02-11T06:47:31;7.40;99.90
25300;DHT22;13241;51.208;4.432;2023-02-11T06:49:58;7.40;99.90
25300;DHT22;13241;51.208;4.432;2023-02-11T06:52:25;7.40;99.90
25300;DHT22;13241;51.208;4.432;2023-02-11T06:54:52;7.40;99.90
25300;DHT22;13241;51.208;4.432;2023-02-11T06:57:18;7.40;99.90
25300;DHT22;13241;51.208;4.432;2023-02-11T06:59:45;7.40;99.90
25300;DHT22;13241;51.208;4.432;2023-02-11T07:02:12;7.40;99.90
25300;DHT22;13241;51.208;4.432;2023-02-11T07:04:39;7.40;99.90
25300;DHT22;13241;51.208;4.432;2023-02-11T07:07:05;7.40;99.90
25300;DHT22;13241;51.208;4.432;2023-02-11T07:09:32;7.40;99.90
25300;DHT22;13241;51.208;4.432;2023-02-11T07:11:59;7.50;99.90
25300;DHT22;13241;51.208;4.432;2023-02-11T07:14:25;7.50;99.90
25300;DHT22;13241;51.208;4.432;2023-02-11T07:16:52;7.50;99.90
25300;DHT22;13241;51.208;4.432;2023-02-11T07:19:19;7.50;99.90
25300;DHT22;13241;51.208;4.432;2023-02-11T07:21:46;7.50;99.90
25300;DHT22;13241;51.208;4.432;2023-02-11T07:24:14;7.50;99.90
25300;DHT22;13241;51.208;4.432;2023-02-11T07:26:41;7.60;99.90
25300;DHT22;13241;51.208;4.432;2023-02-11T07:29:08;7.70;99.90
25300;DHT22;13241;51.208;4.432;2023-02-11T07:31:35;7.70;99.90
25300;DHT22;13241;51.208;4.432;2023-02-11T07:34:02;7.70;99.90
25300;DHT22;13241;51.208;4.432;2023-02-11T07:36:30;7.70;99.90
25300;DHT22;13241;51.208;4.432;2023-02-11T07:38:58;7.70;99.90
25300;DHT22;13241;51.208;4.432;2023-02-11T07:41:26;7.70;99.90
25300;DHT22;13241;51.208;4.432;2023-02-11T07:43:53;7.80;99.90
25300;DHT22;13241;51.208;4.432;2023-02-11T07:46:22;7.80;99.90
25300;DHT22;13241;51.208;4.432;2023-02-11T07:48:50;7.80;99.90
25300;DHT22;13241;51.208;4.432;2023-02-11T07:53:48;7.80;99.90
25300;DHT22;13241;51.208;4.432;2023-02-11T07:56:16;7.90;99.90
25300;DHT22;13241;51.208;4.432;2023-02-11T07:58:43;7.90;99.90
25300;DHT22;13241;51.208;4.432;2023-02-11T08:01:22;7.90;99.90
25300;DHT22;13241;51.208;4.432;2023-02-11T08:03:51;7.90;99.90
25300;DHT22;13241;51.208;4.432;2023-02-11T08:06:20;7.90;99.90
25300;DHT22;13241;51.208;4.432;2023-02-11T08:08:48;8.00;99.90
25300;DHT22;13241;51.208;4.432;2023-02-11T08:11:18;8.00;99.90
25300;DHT22;13241;51.208;4.432;2023-02-11T08:13:45;8.00;99.90
25300;DHT22;13241;51.208;4.432;2023-02-11T08:16:21;8.00;99.90
25300;DHT22;13241;51.208;4.432;2023-02-11T08:18:49;8.00;99.90
25300;DHT22;13241;51.208;4.432;2023-02-11T08:21:16;8.10;99.90
25300;DHT22;13241;51.208;4.432;2023-02-11T08:23:44;8.00;99.90
25300;DHT22;13241;51.208;4.432;2023-02-11T08:26:16;8.00;99.90
25300;DHT22;13241;51.208;4.432;2023-02-11T08:28:45;8.00;99.90
25300;DHT22;13241;51.208;4.432;2023-02-11T08:31:31;8.00;99.90
25300;DHT22;13241;51.208;4.432;2023-02-11T08:33:59;8.00;99.90
25300;DHT22;13241;51.208;4.432;2023-02-11T08:36:32;8.00;99.90
25300;DHT22;13241;51.208;4.432;2023-02-11T08:39:01;8.30;99.90
25300;DHT22;13241;51.208;4.432;2023-02-11T08:41:45;8.10;99.90
25300;DHT22;13241;51.208;4.432;2023-02-11T08:44:14;8.10;99.90
25300;DHT22;13241;51.208;4.432;2023-02-11T08:46:41;8.10;99.90
25300;DHT22;13241;51.208;4.432;2023-02-11T08:49:08;8.10;99.90
25300;DHT22;13241;51.208;4.432;2023-02-11T08:51:34;8.10;99.90
25300;DHT22;13241;51.208;4.432;2023-02-11T08:54:01;8.10;99.90
25300;DHT22;13241;51.208;4.432;2023-02-11T08:56:28;8.10;99.90
25300;DHT22;13241;51.208;4.432;2023-02-11T08:58:57;8.20;99.90
25300;DHT22;13241;51.208;4.432;2023-02-11T09:01:26;8.20;99.90
25300;DHT22;13241;51.208;4.432;2023-02-11T09:03:55;8.20;99.90
25300;DHT22;13241;51.208;4.432;2023-02-11T09:06:23;8.20;99.90
25300;DHT22;13241;51.208;4.432;2023-02-11T09:08:52;8.40;99.90
25300;DHT22;13241;51.208;4.432;2023-02-11T09:11:21;8.20;99.90
25300;DHT22;13241;51.208;4.432;2023-02-11T09:13:50;8.30;99.90
25300;DHT22;13241;51.208;4.432;2023-02-11T09:16:22;8.30;99.90
25300;DHT22;13241;51.208;4.432;2023-02-11T09:18:50;8.30;99.90
25300;DHT22;13241;51.208;4.432;2023-02-11T09:21:18;8.40;99.90
25300;DHT22;13241;51.208;4.432;2023-02-11T09:23:45;8.50;99.90
25300;DHT22;13241;51.208;4.432;2023-02-11T09:26:16;8.50;99.90
25300;DHT22;13241;51.208;4.432;2023-02-11T09:28:43;8.60;99.90
25300;DHT22;13241;51.208;4.432;2023-02-11T09:31:12;8.60;99.90
25300;DHT22;13241;51.208;4.432;2023-02-11T09:33:41;8.60;99.90
25300;DHT22;13241;51.208;4.432;2023-02-11T09:36:21;8.70;99.90
25300;DHT22;13241;51.208;4.432;2023-02-11T09:38:48;8.70;99.90
25300;DHT22;13241;51.208;4.432;2023-02-11T09:43:53;8.80;99.90
25300;DHT22;13241;51.208;4.432;2023-02-11T09:46:22;8.80;99.90
25300;DHT22;13241;51.208;4.432;2023-02-11T09:48:51;8.90;99.90
25300;DHT22;13241;51.208;4.432;2023-02-11T09:51:42;8.90;99.90
25300;DHT22;13241;51.208;4.432;2023-02-11T09:54:26;9.00;99.90
25300;DHT22;13241;51.208;4.432;2023-02-11T09:56:54;9.10;99.90
25300;DHT22;13241;51.208;4.432;2023-02-11T09:59:21;9.20;99.90
25300;DHT22;13241;51.208;4.432;2023-02-11T10:02:05;9.30;99.90
25300;DHT22;13241;51.208;4.432;2023-02-11T10:07:24;9.40;99.90
25300;DHT22;13241;51.208;4.432;2023-02-11T10:10:12;9.40;99.90
25300;DHT22;13241;51.208;4.432;2023-02-11T10:15:40;9.30;99.90
25300;DHT22;13241;51.208;4.432;2023-02-11T10:18:33;9.30;99.90
25300;DHT22;13241;51.208;4.432;2023-02-11T10:21:14;9.30;99.90
25300;DHT22;13241;51.208;4.432;2023-02-11T10:23:49;9.30;99.90
25300;DHT22;13241;51.208;4.432;2023-02-11T10:26:18;9.20;99.90
25300;DHT22;13241;51.208;4.432;2023-02-11T10:28:47;9.20;99.90
25300;DHT22;13241;51.208;4.432;2023-02-11T10:31:27;9.20;99.90
25300;DHT22;13241;51.208;4.432;2023-02-11T10:34:10;9.20;99.90
25300;DHT22;13241;51.208;4.432;2023-02-11T10:36:40;9.30;99.90
25300;DHT22;13241;51.208;4.432;2023-02-11T10:39:19;9.30;99.90
25300;DHT22;13241;51.208;4.432;2023-02-11T10:41:53;9.30;99.90
25300;DHT22;13241;51.208;4.432;2023-02-11T10:44:30;9.20;99.90
25300;DHT22;13241;51.208;4.432;2023-02-11T10:47:00;9.30;99.90
25300;DHT22;13241;51.208;4.432;2023-02-11T10:49:42;9.30;99.90
25300;DHT22;13241;51.208;4.432;2023-02-11T10:54:56;9.40;99.90
25300;DHT22;13241;51.208;4.432;2023-02-11T10:57:32;9.50;99.90
25300;DHT22;13241;51.208;4.432;2023-02-11T11:00:04;9.50;99.90
25300;DHT22;13241;51.208;4.432;2023-02-11T11:02:35;9.60;99.90
25300;DHT22;13241;51.208;4.432;2023-02-11T11:05:28;9.70;99.90
25300;DHT22;13241;51.208;4.432;2023-02-11T11:07:59;9.80;99.90
25300;DHT22;13241;51.208;4.432;2023-02-11T11:10:33;9.90;99.90
25300;DHT22;13241;51.208;4.432;2023-02-11T11:13:01;9.90;99.90
25300;DHT22;13241;51.208;4.432;2023-02-11T11:15:30;10.00;99.90
25300;DHT22;13241;51.208;4.432;2023-02-11T11:18:17;10.10;99.90
25300;DHT22;13241;51.208;4.432;2023-02-11T11:21:01;10.00;99.90
25300;DHT22;13241;51.208;4.432;2023-02-11T11:23:29;10.10;99.90
25300;DHT22;13241;51.208;4.432;2023-02-11T11:26:06;10.00;99.90
25300;DHT22;13241;51.208;4.432;2023-02-11T11:31:25;10.00;99.90
25300;DHT22;13241;51.208;4.432;2023-02-11T11:33:55;10.00;99.90
25300;DHT22;13241;51.208;4.432;2023-02-11T11:36:31;10.00;99.90
25300;DHT22;13241;51.208;4.432;2023-02-11T11:39:02;10.00;99.90
25300;DHT22;13241;51.208;4.432;2023-02-11T11:41:32;10.00;99.90
25300;DHT22;13241;51.208;4.432;2023-02-11T11:44:55;10.00;99.90
25300;DHT22;13241;51.208;4.432;2023-02-11T11:55:08;10.10;99.90
25300;DHT22;13241;51.208;4.432;2023-02-11T11:57:38;10.00;99.90
25300;DHT22;13241;51.208;4.432;2023-02-11T12:00:16;10.10;99.90
25300;DHT22;13241;51.208;4.432;2023-02-11T12:11:00;10.10;99.90
25300;DHT22;13241;51.208;4.432;2023-02-11T12:16:32;10.00;99.90
25300;DHT22;13241;51.208;4.432;2023-02-11T12:19:29;10.10;99.90
25300;DHT22;13241;51.208;4.432;2023-02-11T12:24:55;10.20;99.90
25300;DHT22;13241;51.208;4.432;2023-02-11T12:33:42;10.30;99.90
25300;DHT22;13241;51.208;4.432;2023-02-11T12:36:35;10.40;99.90
25300;DHT22;13241;51.208;4.432;2023-02-11T12:39:38;10.40;99.90
25300;DHT22;13241;51.208;4.432;2023-02-11T12:51:07;10.20;99.90
25300;DHT22;13241;51.208;4.432;2023-02-11T12:54:01;10.20;99.90
25300;DHT22;13241;51.208;4.432;2023-02-11T12:56:36;10.00;99.90
25300;DHT22;13241;51.208;4.432;2023-02-11T12:59:12;10.20;99.90
25300;DHT22;13241;51.208;4.432;2023-02-11T13:01:42;10.20;99.90
25300;DHT22;13241;51.208;4.432;2023-02-11T13:04:20;10.20;99.90
25300;DHT22;13241;51.208;4.432;2023-02-11T13:06:54;10.20;99.90
25300;DHT22;13241;51.208;4.432;2023-02-11T13:09:34;10.20;99.90
25300;DHT22;13241;51.208;4.432;2023-02-11T13:12:05;10.20;99.90
25300;DHT22;13241;51.208;4.432;2023-02-11T13:14:55;10.20;99.90
25300;DHT22;13241;51.208;4.432;2023-02-11T13:17:37;10.20;99.90
25300;DHT22;13241;51.208;4.432;2023-02-11T13:23:00;10.30;99.90
25300;DHT22;13241;51.208;4.432;2023-02-11T13:28:45;10.30;99.90
25300;DHT22;13241;51.208;4.432;2023-02-11T13:31:15;10.30;99.90
25300;DHT22;13241;51.208;4.432;2023-02-11T13:33:46;10.30;99.90
25300;DHT22;13241;51.208;4.432;2023-02-11T13:38:56;10.30;99.90
25300;DHT22;13241;51.208;4.432;2023-02-11T13:44:19;10.40;99.90
25300;DHT22;13241;51.208;4.432;2023-02-11T13:49:22;10.30;99.90
25300;DHT22;13241;51.208;4.432;2023-02-11T13:51:50;10.50;99.90
25300;DHT22;13241;51.208;4.432;2023-02-11T13:54:22;10.30;99.90
25300;DHT22;13241;51.208;4.432;2023-02-11T13:59:55;10.40;99.90
25300;DHT22;13241;51.208;4.432;2023-02-11T14:02:34;10.50;99.90
25300;DHT22;13241;51.208;4.432;2023-02-11T14:05:30;10.50;99.90
25300;DHT22;13241;51.208;4.432;2023-02-11T14:08:21;10.50;99.90
25300;DHT22;13241;51.208;4.432;2023-02-11T14:16:23;10.50;99.90
25300;DHT22;13241;51.208;4.432;2023-02-11T14:19:04;10.50;99.90
25300;DHT22;13241;51.208;4.432;2023-02-11T14:21:37;10.50;99.90
25300;DHT22;13241;51.208;4.432;2023-02-11T14:32:28;10.50;99.90
25300;DHT22;13241;51.208;4.432;2023-02-11T14:40:42;10.50;99.90
25300;DHT22;13241;51.208;4.432;2023-02-11T14:43:17;10.50;99.90
25300;DHT22;13241;51.208;4.432;2023-02-11T14:45:50;10.50;99.90
25300;DHT22;13241;51.208;4.432;2023-02-11T14:48:20;10.50;99.90
25300;DHT22;13241;51.208;4.432;2023-02-11T14:51:03;10.50;99.90
25300;DHT22;13241;51.208;4.432;2023-02-11T14:53:33;10.50;99.90
25300;DHT22;13241;51.208;4.432;2023-02-11T14:56:00;10.50;99.90
25300;DHT22;13241;51.208;4.432;2023-02-11T14:58:29;10.40;99.90
25300;DHT22;13241;51.208;4.432;2023-02-11T15:03:32;10.50;99.90
25300;DHT22;13241;51.208;4.432;2023-02-11T15:06:06;10.50;99.90
25300;DHT22;13241;51.208;4.432;2023-02-11T15:08:35;10.50;99.90
25300;DHT22;13241;51.208;4.432;2023-02-11T15:11:09;10.60;99.90
25300;DHT22;13241;51.208;4.432;2023-02-11T15:13:37;10.50;99.90
25300;DHT22;13241;51.208;4.432;2023-02-11T15:16:06;10.50;99.90
25300;DHT22;13241;51.208;4.432;2023-02-11T15:18:39;10.50;99.90
25300;DHT22;13241;51.208;4.432;2023-02-11T15:21:08;10.50;99.90
25300;DHT22;13241;51.208;4.432;2023-02-11T15:23:35;10.50;99.90
25300;DHT22;13241;51.208;4.432;2023-02-11T15:26:11;10.50;99.90
25300;DHT22;13241;51.208;4.432;2023-02-11T15:28:45;10.50;99.90
25300;DHT22;13241;51.208;4.432;2023-02-11T15:31:20;10.40;99.90
25300;DHT22;13241;51.208;4.432;2023-02-11T15:33:50;10.40;99.90
25300;DHT22;13241;51.208;4.432;2023-02-11T15:36:19;10.50;99.90
25300;DHT22;13241;51.208;4.432;2023-02-11T15:39:16;10.50;99.90
25300;DHT22;13241;51.208;4.432;2023-02-11T15:41:44;10.50;99.90
25300;DHT22;13241;51.208;4.432;2023-02-11T15:44:31;10.50;99.90
25300;DHT22;13241;51.208;4.432;2023-02-11T15:46:58;10.50;99.90
25300;DHT22;13241;51.208;4.432;2023-02-11T15:49:26;10.40;99.90
25300;DHT22;13241;51.208;4.432;2023-02-11T15:51:55;10.40;99.90
25300;DHT22;13241;51.208;4.432;2023-02-11T15:54:25;10.40;99.90
25300;DHT22;13241;51.208;4.432;2023-02-11T15:56:58;10.30;99.90
25300;DHT22;13241;51.208;4.432;2023-02-11T15:59:32;10.30;99.90
25300;DHT22;13241;51.208;4.432;2023-02-11T16:02:16;10.30;99.90
25300;DHT22;13241;51.208;4.432;2023-02-11T16:05:07;10.20;99.90
25300;DHT22;13241;51.208;4.432;2023-02-11T16:10:21;10.10;99.90
25300;DHT22;13241;51.208;4.432;2023-02-11T16:15:42;10.10;99.90
25300;DHT22;13241;51.208;4.432;2023-02-11T16:21:05;10.20;99.90
25300;DHT22;13241;51.208;4.432;2023-02-11T16:23:38;10.20;99.90
25300;DHT22;13241;51.208;4.432;2023-02-11T16:26:24;10.20;99.90
25300;DHT22;13241;51.208;4.432;2023-02-11T16:28:51;10.10;99.90
25300;DHT22;13241;51.208;4.432;2023-02-11T16:31:18;10.20;99.90
25300;DHT22;13241;51.208;4.432;2023-02-11T16:33:45;10.10;99.90
25300;DHT22;13241;51.208;4.432;2023-02-11T16:36:14;10.00;99.90
25300;DHT22;13241;51.208;4.432;2023-02-11T16:38:42;10.00;99.90
25300;DHT22;13241;51.208;4.432;2023-02-11T16:41:09;10.00;99.90
25300;DHT22;13241;51.208;4.432;2023-02-11T16:43:38;10.00;99.90
25300;DHT22;13241;51.208;4.432;2023-02-11T16:46:05;10.00;99.90
25300;DHT22;13241;51.208;4.432;2023-02-11T16:48:32;10.00;99.90
25300;DHT22;13241;51.208;4.432;2023-02-11T16:51:00;10.00;99.90
25300;DHT22;13241;51.208;4.432;2023-02-11T16:53:27;9.90;99.90
25300;DHT22;13241;51.208;4.432;2023-02-11T16:55:54;10.00;99.90
25300;DHT22;13241;51.208;4.432;2023-02-11T16:58:20;9.90;99.90
25300;DHT22;13241;51.208;4.432;2023-02-11T17:00:47;9.90;99.90
25300;DHT22;13241;51.208;4.432;2023-02-11T17:03:22;10.00;99.90
25300;DHT22;13241;51.208;4.432;2023-02-11T17:05:50;10.10;99.90
25300;DHT22;13241;51.208;4.432;2023-02-11T17:08:21;10.00;99.90
25300;DHT22;13241;51.208;4.432;2023-02-11T17:10:48;10.00;99.90
25300;DHT22;13241;51.208;4.432;2023-02-11T17:13:15;10.00;99.90
25300;DHT22;13241;51.208;4.432;2023-02-11T17:15:42;10.00;99.90
25300;DHT22;13241;51.208;4.432;2023-02-11T17:18:12;10.00;99.90
25300;DHT22;13241;51.208;4.432;2023-02-11T17:20:40;10.00;99.90
25300;DHT22;13241;51.208;4.432;2023-02-11T17:23:07;9.90;99.90
25300;DHT22;13241;51.208;4.432;2023-02-11T17:25:34;9.90;99.90
25300;DHT22;13241;51.208;4.432;2023-02-11T17:28:05;9.90;99.90
25300;DHT22;13241;51.208;4.432;2023-02-11T17:30:32;9.90;99.90
25300;DHT22;13241;51.208;4.432;2023-02-11T17:32:59;9.90;99.90
25300;DHT22;13241;51.208;4.432;2023-02-11T17:35:26;9.90;99.90
25300;DHT22;13241;51.208;4.432;2023-02-11T17:37:53;9.90;99.90
25300;DHT22;13241;51.208;4.432;2023-02-11T17:40:20;9.90;99.90
25300;DHT22;13241;51.208;4.432;2023-02-11T17:42:47;9.90;99.90
25300;DHT22;13241;51.208;4.432;2023-02-11T17:45:14;9.90;99.90
25300;DHT22;13241;51.208;4.432;2023-02-11T17:47:41;10.00;99.90
25300;DHT22;13241;51.208;4.432;2023-02-11T17:50:08;10.00;99.90
25300;DHT22;13241;51.208;4.432;2023-02-11T17:52:35;10.00;99.90
25300;DHT22;13241;51.208;4.432;2023-02-11T17:55:04;10.00;99.90
25300;DHT22;13241;51.208;4.432;2023-02-11T17:57:31;10.00;99.90
25300;DHT22;13241;51.208;4.432;2023-02-11T17:59:58;9.90;99.90
25300;DHT22;13241;51.208;4.432;2023-02-11T18:02:24;9.90;99.90
25300;DHT22;13241;51.208;4.432;2023-02-11T18:04:51;9.90;99.90
25300;DHT22;13241;51.208;4.432;2023-02-11T18:07:18;9.90;99.90
25300;DHT22;13241;51.208;4.432;2023-02-11T18:09:45;10.00;99.90
25300;DHT22;13241;51.208;4.432;2023-02-11T18:12:12;9.80;99.90